Terminal Aerodrome Forecast
Issued by NWS Wakefield, VA

Home | Current Version | Previous Version | Text Only | Print | Product List | Glossary On
Versions: 1 2 3 4 5 6 7 8 9 10 11 12 13 14 15 16 17 18
044
FTUS41 KAKQ 081739
TAFECG
TAF
KECG 081739Z 0818/0918 01007KT P6SM SCT250
     FM082200 15007KT P6SM BKN090
     FM090200 16008KT P6SM -RA OVC035
     FM090500 21008KT P6SM BKN025
     FM090900 25006KT P6SM SCT020 SCT070
     FM091600 27011KT P6SM BKN035=

USA.gov is the U.S. government's official web portal to all federal, state and local government web resources and services.